Time;durP1;ratioP1;P1;durP2;ratioP2;P2;SDS_P1;SDS_P2;PMS_P1;PMS_P2;Temp;Humidity;BMP_temperature;BMP_pressure;BME280_temperature;BME280_humidity;BME280_pressure;Samples;Min_cycle;Max_cycle;Signal;HPM_P1;HPM_P2
2021/12/15 00:01:18;;;;;;;44.43;22.50;;;9.80;99.90;;;;;;5019801;28;20044;-31
2021/12/15 00:03:43;;;;;;;52.90;24.50;;;9.80;99.90;;;;;;5027499;28;20076;-31
2021/12/15 00:06:13;;;;;;;51.10;24.90;;;9.80;99.90;;;;;;5019983;28;20513;-31
2021/12/15 00:08:44;;;;;;;61.20;26.00;;;9.80;99.90;;;;;;5020981;28;20049;-31
2021/12/15 00:11:10;;;;;;;61.45;24.83;;;9.90;99.90;;;;;;5026257;28;20080;-31
2021/12/15 00:13:37;;;;;;;54.03;24.57;;;9.80;99.90;;;;;;5027185;28;20466;-30
2021/12/15 00:16:04;;;;;;;56.33;25.00;;;9.90;99.90;;;;;;5009335;28;20540;-30
2021/12/15 00:18:29;;;;;;;52.03;24.70;;;9.80;99.90;;;;;;4991697;28;20515;-31
2021/12/15 00:20:55;;;;;;;56.03;24.87;;;9.90;99.90;;;;;;5006243;28;20066;-31
2021/12/15 00:23:23;;;;;;;58.13;27.33;;;9.80;99.90;;;;;;5014876;28;20049;-31
2021/12/15 00:25:49;;;;;;;56.10;25.37;;;9.90;99.90;;;;;;5031323;28;20076;-31
2021/12/15 00:28:15;;;;;;;59.57;26.00;;;9.90;99.90;;;;;;5013807;28;20112;-31
2021/12/15 00:30:42;;;;;;;62.00;26.33;;;9.90;99.90;;;;;;5031508;28;20046;-31
2021/12/15 00:33:09;;;;;;;64.90;27.53;;;9.80;99.90;;;;;;5029256;28;20102;-31
2021/12/15 00:35:36;;;;;;;59.80;28.17;;;9.90;99.90;;;;;;5031130;28;20041;-30
2021/12/15 00:38:03;;;;;;;59.23;26.67;;;9.80;99.90;;;;;;5004563;28;20057;-31
2021/12/15 00:40:30;;;;;;;57.77;27.67;;;9.80;99.90;;;;;;5011185;28;20042;-31
2021/12/15 00:42:58;;;;;;;62.60;26.47;;;9.80;99.90;;;;;;5009511;28;20054;-31
2021/12/15 00:45:25;;;;;;;52.60;26.60;;;9.80;99.90;;;;;;4993306;28;20049;-31
2021/12/15 00:47:51;;;;;;;56.87;28.30;;;9.80;99.90;;;;;;4995579;28;20053;-31
2021/12/15 00:50:19;;;;;;;58.37;26.30;;;9.80;99.90;;;;;;5009863;28;20046;-31
2021/12/15 00:52:46;;;;;;;53.80;25.50;;;9.80;99.90;;;;;;5010556;28;20054;-31
2021/12/15 00:55:16;;;;;;;59.80;27.97;;;9.80;99.90;;;;;;5011665;28;20052;-31
2021/12/15 00:57:41;;;;;;;54.73;24.83;;;9.80;99.90;;;;;;4995169;28;20176;-31
2021/12/15 01:00:14;;;;;;;53.20;26.57;;;9.90;99.90;;;;;;5013376;28;20136;-31
2021/12/15 01:02:40;;;;;;;59.20;25.37;;;9.90;99.90;;;;;;5010706;28;20038;-31
2021/12/15 01:05:08;;;;;;;58.17;26.83;;;9.80;99.90;;;;;;5018920;28;20258;-31
2021/12/15 01:07:34;;;;;;;56.97;24.00;;;9.90;99.90;;;;;;4994979;28;20042;-31
2021/12/15 01:10:00;;;;;;;50.13;24.40;;;9.90;99.90;;;;;;5019855;28;20056;-31
2021/12/15 01:20:31;;;;;;;44.00;24.30;;;9.90;99.90;;;;;;5010838;28;20137;-30
2021/12/15 01:23:01;;;;;;;56.63;24.57;;;9.90;99.90;;;;;;5015988;28;20049;-31
2021/12/15 01:25:43;;;;;;;51.53;25.17;;;9.90;99.90;;;;;;5028930;28;20444;-31
2021/12/15 01:28:10;;;;;;;52.70;25.07;;;9.90;99.90;;;;;;5012591;28;20481;-31
2021/12/15 01:30:43;;;;;;;56.20;26.70;;;9.90;99.90;;;;;;5030286;28;20089;-31
2021/12/15 01:33:09;;;;;;;55.80;25.90;;;9.90;99.90;;;;;;5028022;28;20049;-31
2021/12/15 01:35:38;;;;;;;49.63;26.50;;;9.90;99.90;;;;;;5011138;28;20575;-31
2021/12/15 01:38:04;;;;;;;51.83;24.90;;;9.90;99.90;;;;;;5003210;28;20567;-31
2021/12/15 01:40:37;;;;;;;47.23;25.63;;;9.90;99.90;;;;;;5010570;28;20045;-31
2021/12/15 01:43:16;;;;;;;50.23;25.43;;;9.90;99.90;;;;;;5009830;28;20069;-31
2021/12/15 01:48:34;;;;;;;52.83;27.67;;;9.90;99.90;;;;;;5001956;28;20041;-31
2021/12/15 01:51:01;;;;;;;56.73;28.60;;;9.90;99.90;;;;;;5029808;28;20072;-31
2021/12/15 01:53:27;;;;;;;57.23;28.63;;;9.90;99.90;;;;;;5029481;28;20053;-31
2021/12/15 01:55:52;;;;;;;59.07;29.53;;;9.90;99.90;;;;;;5028749;28;20123;-31
2021/12/15 01:58:18;;;;;;;65.13;29.93;;;9.90;99.90;;;;;;5012207;28;20050;-31
2021/12/15 02:00:57;;;;;;;62.57;29.73;;;9.90;99.90;;;;;;5027939;28;20061;-31
2021/12/15 02:03:24;;;;;;;57.90;29.90;;;9.90;99.90;;;;;;5029132;28;20038;-31
2021/12/15 02:05:50;;;;;;;58.80;30.63;;;9.90;99.90;;;;;;5029848;28;20037;-31
2021/12/15 02:08:17;;;;;;;59.53;31.17;;;9.90;99.90;;;;;;4995658;28;20045;-31
2021/12/15 02:10:44;;;;;;;57.63;30.47;;;9.90;99.90;;;;;;5029948;28;20099;-32
2021/12/15 02:13:15;;;;;;;62.63;31.07;;;9.90;99.90;;;;;;5027112;28;20053;-31
2021/12/15 02:15:46;;;;;;;62.60;30.90;;;9.90;99.90;;;;;;5014982;28;20045;-31
2021/12/15 02:18:15;;;;;;;65.53;33.30;;;9.90;99.90;;;;;;4993245;28;20050;-31
2021/12/15 02:20:49;;;;;;;64.83;32.47;;;9.90;99.90;;;;;;5008093;28;20161;-32
2021/12/15 02:23:21;;;;;;;67.47;33.73;;;9.90;99.90;;;;;;5017000;28;20045;-31
2021/12/15 02:25:49;;;;;;;62.57;33.70;;;9.90;99.90;;;;;;5027575;28;20053;-31
2021/12/15 02:28:15;;;;;;;64.33;33.20;;;9.90;99.90;;;;;;5013134;28;20413;-31
2021/12/15 02:38:40;;;;;;;65.60;33.00;;;9.90;99.90;;;;;;5004758;28;20508;-31
2021/12/15 02:41:12;;;;;;;61.28;32.28;;;10.00;99.90;;;;;;5007740;28;20049;-31
2021/12/15 02:43:38;;;;;;;64.50;33.70;;;10.00;99.90;;;;;;5008456;28;20041;-31
2021/12/15 02:46:05;;;;;;;64.30;32.80;;;9.90;99.90;;;;;;5009519;28;20046;-31
2021/12/15 02:48:31;;;;;;;59.03;32.07;;;10.00;99.90;;;;;;4998616;28;20076;-31
2021/12/15 02:50:57;;;;;;;62.73;32.63;;;9.90;99.90;;;;;;5028898;28;20049;-31
2021/12/15 02:53:23;;;;;;;59.30;32.90;;;9.90;99.90;;;;;;5028037;28;20504;-30
2021/12/15 02:55:49;;;;;;;69.40;33.93;;;9.90;99.90;;;;;;5029331;28;20064;-31
2021/12/15 02:58:17;;;;;;;66.50;33.23;;;9.90;99.90;;;;;;5012890;28;20161;-31
2021/12/15 03:01:01;;;;;;;70.87;33.27;;;9.90;99.90;;;;;;5028458;28;20054;-31
2021/12/15 03:06:15;;;;;;;66.97;32.53;;;10.00;99.90;;;;;;5007688;28;20057;-31
2021/12/15 03:15:21;;;;;;;61.83;33.37;;;9.90;99.90;;;;;;5026112;28;20088;-31
2021/12/15 03:16:57;;;;;;;64.27;33.07;;;9.90;99.90;;;;;;4983011;28;20580;-31
2021/12/15 03:19:23;;;;;;;61.43;32.93;;;10.00;99.90;;;;;;5006062;28;20096;-31
2021/12/15 03:21:49;;;;;;;61.30;33.60;;;9.90;99.90;;;;;;5008584;28;20069;-31
2021/12/15 03:24:19;;;;;;;64.80;33.53;;;9.90;99.90;;;;;;5024100;28;20404;-31
2021/12/15 03:26:57;;;;;;;65.03;33.83;;;9.90;99.90;;;;;;5012986;28;20497;-31
2021/12/15 03:37:29;;;;;;;69.27;34.43;;;10.00;99.90;;;;;;5005678;28;20718;-31
2021/12/15 03:40:14;;;;;;;70.50;34.20;;;9.90;99.90;;;;;;5006662;28;20045;-31
2021/12/15 03:42:54;;;;;;;62.30;32.83;;;10.00;99.90;;;;;;5007486;28;20057;-31
2021/12/15 03:45:43;;;;;;;62.73;33.90;;;9.90;99.90;;;;;;5008642;28;20049;-31
2021/12/15 03:48:14;;;;;;;62.47;32.97;;;9.90;99.90;;;;;;4992152;28;20378;-31
2021/12/15 03:50:42;;;;;;;74.50;34.67;;;9.90;99.90;;;;;;5027889;28;20445;-31
2021/12/15 03:53:10;;;;;;;68.70;34.27;;;9.90;99.90;;;;;;5027279;28;20481;-31
2021/12/15 03:55:37;;;;;;;55.40;33.00;;;9.90;99.90;;;;;;5010114;28;20045;-31
2021/12/15 03:58:07;;;;;;;59.93;33.27;;;9.90;99.90;;;;;;5011794;28;20464;-31
2021/12/15 04:00:34;;;;;;;60.77;32.70;;;9.90;99.90;;;;;;5029903;28;20055;-31
2021/12/15 04:03:01;;;;;;;63.63;34.63;;;9.90;99.90;;;;;;5031292;28;20103;-32
2021/12/15 04:05:27;;;;;;;63.53;34.37;;;9.90;99.90;;;;;;5030268;28;20054;-31
2021/12/15 04:07:53;;;;;;;59.90;32.27;;;9.90;99.90;;;;;;5015808;28;20157;-31
2021/12/15 04:10:22;;;;;;;62.07;32.87;;;9.90;99.90;;;;;;5030483;28;20049;-31
2021/12/15 04:12:49;;;;;;;62.30;32.77;;;9.90;99.90;;;;;;5031290;28;20083;-31
2021/12/15 04:17:56;;;;;;;69.23;32.20;;;9.90;99.90;;;;;;4995728;28;20129;-31
2021/12/15 04:20:25;;;;;;;60.10;33.03;;;9.90;99.90;;;;;;5011500;28;20520;-31
2021/12/15 04:22:52;;;;;;;61.47;33.87;;;9.90;99.90;;;;;;5015488;28;20055;-31
2021/12/15 04:25:25;;;;;;;52.13;31.30;;;9.90;99.90;;;;;;5031429;28;20365;-31
2021/12/15 04:27:58;;;;;;;58.93;31.00;;;9.90;99.90;;;;;;5015579;28;20393;-31
2021/12/15 04:30:26;;;;;;;57.60;30.97;;;9.90;99.90;;;;;;5031743;28;20115;-31
2021/12/15 04:32:52;;;;;;;55.77;29.57;;;10.00;99.90;;;;;;5029132;28;20056;-30
2021/12/15 04:35:18;;;;;;;58.37;29.13;;;10.00;99.90;;;;;;5031615;28;20420;-31
2021/12/15 04:37:45;;;;;;;58.93;30.93;;;9.90;99.90;;;;;;5006855;28;20046;-31
2021/12/15 04:40:13;;;;;;;57.07;29.53;;;9.90;99.90;;;;;;5011732;28;20264;-31
2021/12/15 04:42:39;;;;;;;51.33;29.57;;;10.00;99.90;;;;;;5011001;28;20049;-31
2021/12/15 04:45:08;;;;;;;50.83;28.53;;;10.00;99.90;;;;;;5011761;28;20460;-30
2021/12/15 04:47:34;;;;;;;68.93;31.37;;;9.90;99.90;;;;;;4995139;28;20037;-32
2021/12/15 04:50:00;;;;;;;56.13;30.27;;;9.90;99.90;;;;;;5011618;28;20050;-31
2021/12/15 04:52:28;;;;;;;55.10;29.30;;;9.90;99.90;;;;;;5010415;28;20049;-31
2021/12/15 04:54:56;;;;;;;55.47;29.60;;;9.90;99.90;;;;;;5011299;28;20034;-31
2021/12/15 04:57:22;;;;;;;56.20;28.97;;;9.90;99.90;;;;;;4995428;28;20237;-31
2021/12/15 04:59:49;;;;;;;61.53;30.33;;;9.90;99.90;;;;;;5011199;28;20682;-31
2021/12/15 05:02:16;;;;;;;55.43;28.97;;;9.90;99.90;;;;;;5030231;28;20045;-31
2021/12/15 05:04:43;;;;;;;55.27;29.50;;;9.90;99.90;;;;;;5030435;28;20512;-31
2021/12/15 05:07:09;;;;;;;61.07;29.33;;;9.90;99.90;;;;;;5014378;28;20037;-31
2021/12/15 05:09:36;;;;;;;59.00;31.17;;;10.00;99.90;;;;;;5030625;28;20414;-31
2021/12/15 05:12:03;;;;;;;64.93;31.53;;;9.90;99.90;;;;;;5030849;28;20049;-31
2021/12/15 05:14:29;;;;;;;64.43;30.40;;;9.90;99.90;;;;;;5024972;28;20048;-31
2021/12/15 05:16:55;;;;;;;57.90;29.83;;;9.90;99.90;;;;;;4995695;28;20054;-31
2021/12/15 05:19:21;;;;;;;61.30;31.47;;;9.90;99.90;;;;;;5009806;28;20420;-31
2021/12/15 05:21:50;;;;;;;62.30;30.90;;;9.90;99.90;;;;;;5010324;28;20054;-31
2021/12/15 05:24:38;;;;;;;56.70;31.17;;;9.90;99.90;;;;;;5026339;28;20060;-31
2021/12/15 05:27:13;;;;;;;61.43;31.40;;;9.90;99.90;;;;;;5013117;28;20049;-31
2021/12/15 05:29:41;;;;;;;59.50;31.13;;;9.90;99.90;;;;;;5008656;28;20129;-31
2021/12/15 05:32:08;;;;;;;53.93;31.87;;;9.90;99.90;;;;;;5010246;28;20088;-31
2021/12/15 05:34:36;;;;;;;61.60;30.53;;;9.90;99.90;;;;;;5010227;28;20042;-31
2021/12/15 05:37:03;;;;;;;62.33;32.37;;;9.90;99.90;;;;;;4991627;28;20034;-31
2021/12/15 05:39:30;;;;;;;58.10;31.37;;;9.90;99.90;;;;;;4990215;28;20046;-31
2021/12/15 05:41:55;;;;;;;56.73;30.20;;;9.90;99.90;;;;;;5005216;28;20209;-31
2021/12/15 05:44:23;;;;;;;57.07;30.03;;;9.90;99.90;;;;;;5008937;28;20394;-31
2021/12/15 05:46:50;;;;;;;65.97;31.77;;;9.90;99.90;;;;;;4992851;28;20049;-30
2021/12/15 05:49:16;;;;;;;61.00;30.83;;;9.90;99.90;;;;;;5008978;28;20510;-31
2021/12/15 05:51:42;;;;;;;57.73;30.47;;;9.90;99.90;;;;;;5010131;28;20046;-31
2021/12/15 05:54:08;;;;;;;58.33;31.53;;;9.90;99.90;;;;;;5009341;28;20065;-31
2021/12/15 05:56:34;;;;;;;61.83;32.40;;;9.90;99.90;;;;;;4996644;28;20083;-31
2021/12/15 05:59:00;;;;;;;67.77;30.77;;;9.90;99.90;;;;;;5007119;28;20050;-31
2021/12/15 06:01:28;;;;;;;58.57;31.50;;;9.90;99.90;;;;;;5010267;28;20053;-31
2021/12/15 06:03:54;;;;;;;62.90;31.57;;;9.90;99.90;;;;;;5006292;28;20050;-31
2021/12/15 06:06:20;;;;;;;52.60;30.57;;;9.90;99.90;;;;;;4980080;28;20039;-31
2021/12/15 06:08:46;;;;;;;67.67;32.33;;;9.90;99.90;;;;;;5011369;28;20065;-31
2021/12/15 06:11:11;;;;;;;62.60;31.53;;;9.90;99.90;;;;;;5029275;28;20150;-31
2021/12/15 06:13:37;;;;;;;57.40;31.30;;;9.90;99.90;;;;;;5015891;28;20139;-31
2021/12/15 06:16:05;;;;;;;59.83;30.53;;;9.90;99.90;;;;;;5006496;28;20051;-32
2021/12/15 06:18:31;;;;;;;57.50;31.23;;;9.90;99.90;;;;;;4993994;28;20321;-31
2021/12/15 06:20:57;;;;;;;64.27;32.03;;;9.90;99.90;;;;;;5009568;28;20147;-31
2021/12/15 06:23:28;;;;;;;60.23;31.07;;;10.00;99.90;;;;;;5008284;28;20060;-31
2021/12/15 06:25:57;;;;;;;70.97;32.17;;;9.90;99.90;;;;;;5009496;28;20041;-32
2021/12/15 06:28:26;;;;;;;61.43;31.40;;;9.90;99.90;;;;;;4993232;28;20052;-31
2021/12/15 06:30:52;;;;;;;60.33;32.37;;;9.90;99.90;;;;;;5009506;28;20053;-31
2021/12/15 06:33:18;;;;;;;69.20;31.37;;;9.90;99.90;;;;;;5007247;28;20646;-31
2021/12/15 06:35:59;;;;;;;66.67;33.03;;;9.90;99.90;;;;;;5009418;28;20054;-31
2021/12/15 06:38:32;;;;;;;65.35;31.92;;;9.90;99.90;;;;;;4979349;28;20048;-31
2021/12/15 06:40:58;;;;;;;63.70;31.77;;;10.00;99.90;;;;;;4989928;28;20051;-31
2021/12/15 06:43:26;;;;;;;63.83;30.80;;;9.90;99.90;;;;;;4989172;28;20048;-31
2021/12/15 06:59:36;;;;;;;64.27;30.07;;;9.90;99.90;;;;;;4988755;28;20141;-31
2021/12/15 07:02:03;;;;;;;63.17;29.40;;;10.00;99.90;;;;;;5005356;28;20042;-31
2021/12/15 07:04:28;;;;;;;57.93;28.13;;;10.00;99.90;;;;;;5006837;28;20045;-31
2021/12/15 07:06:54;;;;;;;62.67;28.83;;;10.00;99.90;;;;;;4993514;28;20475;-31
2021/12/15 07:09:22;;;;;;;61.67;29.63;;;10.00;99.90;;;;;;5007951;28;20497;-31
2021/12/15 07:11:50;;;;;;;56.10;29.17;;;10.00;99.90;;;;;;5008780;28;20045;-31
2021/12/15 07:14:16;;;;;;;53.10;28.37;;;10.00;99.90;;;;;;5003081;28;20105;-30
2021/12/15 07:16:45;;;;;;;54.87;28.37;;;10.00;99.90;;;;;;4973985;28;20042;-31
2021/12/15 07:19:29;;;;;;;52.90;27.07;;;9.90;99.90;;;;;;4987684;28;20050;-30
2021/12/15 07:22:16;;;;;;;56.40;28.10;;;10.00;99.90;;;;;;4988902;28;20557;-31
2021/12/15 07:24:43;;;;;;;53.53;27.90;;;10.00;99.90;;;;;;4988493;28;20125;-31
2021/12/15 07:27:09;;;;;;;52.63;27.57;;;9.90;99.90;;;;;;4990528;28;20049;-31
2021/12/15 07:29:36;;;;;;;47.00;25.77;;;10.00;99.90;;;;;;5008234;28;20049;-31
2021/12/15 07:32:04;;;;;;;50.30;26.97;;;9.90;99.90;;;;;;5009083;28;20042;-31
2021/12/15 07:34:30;;;;;;;47.87;23.90;;;10.00;99.90;;;;;;5005481;28;20128;-31
2021/12/15 07:36:56;;;;;;;44.93;24.80;;;10.00;99.90;;;;;;4992644;28;20141;-31
2021/12/15 07:39:22;;;;;;;48.87;23.90;;;10.00;99.90;;;;;;5007469;28;20512;-31
2021/12/15 07:41:51;;;;;;;47.13;23.10;;;10.00;99.90;;;;;;5008335;28;20111;-31
2021/12/15 07:44:19;;;;;;;47.27;22.63;;;10.00;99.90;;;;;;5003641;28;20113;-31
2021/12/15 07:46:47;;;;;;;40.90;21.83;;;10.00;99.90;;;;;;4990396;28;20045;-31
2021/12/15 07:49:14;;;;;;;44.53;22.13;;;10.00;99.90;;;;;;5002938;28;20129;-31
2021/12/15 07:51:43;;;;;;;44.30;21.43;;;10.00;99.90;;;;;;5005534;28;20433;-31
2021/12/15 07:54:09;;;;;;;45.80;22.17;;;10.20;99.90;;;;;;5022009;28;20050;-30
2021/12/15 07:56:35;;;;;;;43.83;21.63;;;10.00;99.90;;;;;;5014125;28;20053;-31
2021/12/15 07:59:01;;;;;;;40.30;21.60;;;10.00;99.90;;;;;;5025195;28;20056;-31
2021/12/15 08:01:27;;;;;;;38.27;20.00;;;10.00;99.90;;;;;;5027972;28;20084;-31
2021/12/15 08:03:54;;;;;;;34.07;18.47;;;10.00;99.90;;;;;;5025696;28;20067;-31
2021/12/15 08:06:26;;;;;;;42.50;19.23;;;10.00;99.90;;;;;;5012513;28;20049;-31
2021/12/15 08:08:52;;;;;;;36.35;17.63;;;10.00;99.90;;;;;;5022927;28;20069;-31
2021/12/15 08:11:18;;;;;;;35.17;18.23;;;10.00;99.90;;;;;;5027417;28;20265;-31
2021/12/15 08:13:44;;;;;;;32.43;17.37;;;9.90;99.90;;;;;;5025822;28;20295;-32
2021/12/15 08:16:10;;;;;;;33.47;17.27;;;9.90;99.90;;;;;;5018074;28;20041;-31
2021/12/15 08:18:36;;;;;;;38.47;17.43;;;9.90;99.90;;;;;;5019033;28;20305;-31
2021/12/15 08:21:04;;;;;;;34.80;16.70;;;9.90;99.90;;;;;;5023214;28;20388;-31
2021/12/15 08:23:31;;;;;;;31.60;16.00;;;10.00;99.90;;;;;;5026402;28;20048;-31
2021/12/15 08:25:57;;;;;;;34.13;16.23;;;9.90;99.90;;;;;;5027020;28;20096;-31
2021/12/15 08:28:23;;;;;;;28.37;15.17;;;9.90;99.90;;;;;;5003091;28;20048;-31
2021/12/15 08:30:50;;;;;;;37.13;15.93;;;9.90;99.90;;;;;;5026147;28;20052;-31
2021/12/15 08:33:19;;;;;;;42.50;15.90;;;10.00;99.90;;;;;;5026362;28;20076;-31
2021/12/15 08:35:58;;;;;;;37.73;14.77;;;9.90;99.90;;;;;;5027541;28;20390;-31
2021/12/15 08:38:27;;;;;;;26.80;14.77;;;9.80;99.90;;;;;;5007108;28;20065;-31
2021/12/15 08:40:53;;;;;;;25.60;14.80;;;9.80;99.90;;;;;;5026517;28;20049;-31
2021/12/15 08:43:21;;;;;;;28.87;15.03;;;9.90;99.90;;;;;;5024565;28;20080;-30
2021/12/15 08:46:10;;;;;;;30.80;16.37;;;9.80;99.90;;;;;;5028045;28;20398;-31
2021/12/15 08:48:37;;;;;;;31.60;16.37;;;9.90;99.90;;;;;;5019303;28;20083;-31
2021/12/15 08:51:06;;;;;;;33.87;17.30;;;9.80;99.90;;;;;;5028915;28;20413;-31
2021/12/15 08:53:33;;;;;;;35.23;17.47;;;9.80;99.90;;;;;;5028634;28;20046;-31
2021/12/15 08:55:59;;;;;;;37.87;17.77;;;9.80;99.90;;;;;;5027735;28;20081;-31
2021/12/15 08:58:26;;;;;;;38.30;18.50;;;9.80;99.90;;;;;;5012757;28;20081;-31
2021/12/15 09:00:54;;;;;;;36.97;17.23;;;9.80;99.90;;;;;;5002745;28;20050;-31
2021/12/15 09:03:21;;;;;;;35.17;17.40;;;9.80;99.90;;;;;;5028395;28;20547;-31
2021/12/15 09:05:49;;;;;;;34.57;18.47;;;9.80;99.90;;;;;;5029269;28;20092;-31
2021/12/15 09:08:15;;;;;;;36.03;17.27;;;9.80;99.90;;;;;;5013247;28;20042;-31
2021/12/15 09:10:43;;;;;;;38.77;18.13;;;9.80;99.90;;;;;;5028486;28;20408;-31
2021/12/15 09:13:09;;;;;;;35.23;17.90;;;9.80;99.90;;;;;;5028014;28;20045;-31
2021/12/15 09:15:36;;;;;;;34.03;18.23;;;9.80;99.90;;;;;;5022946;28;20462;-32
2021/12/15 09:18:02;;;;;;;36.30;17.77;;;9.80;99.90;;;;;;5002685;28;20057;-31
2021/12/15 09:20:30;;;;;;;32.20;17.57;;;9.80;99.90;;;;;;5025076;28;20067;-31
2021/12/15 09:22:57;;;;;;;34.03;17.80;;;9.80;99.90;;;;;;5024036;28;20057;-31
2021/12/15 09:25:24;;;;;;;34.40;18.37;;;9.90;99.90;;;;;;5022479;28;20038;-31
2021/12/15 09:27:49;;;;;;;34.83;18.57;;;9.90;99.90;;;;;;5010198;28;20136;-31
2021/12/15 09:30:19;;;;;;;37.27;17.53;;;10.00;99.90;;;;;;5017993;28;20576;-31
2021/12/15 09:32:46;;;;;;;39.53;18.67;;;10.00;99.90;;;;;;5018885;28;20047;-31
2021/12/15 09:35:12;;;;;;;40.40;18.23;;;10.00;99.90;;;;;;5022781;28;20049;-31
2021/12/15 09:37:40;;;;;;;34.37;18.87;;;10.00;99.90;;;;;;5004851;28;20053;-31
2021/12/15 09:40:09;;;;;;;38.90;18.67;;;10.00;99.90;;;;;;5020049;28;20054;-31
2021/12/15 09:42:38;;;;;;;35.27;18.13;;;10.00;99.90;;;;;;5022052;28;20072;-31
2021/12/15 09:46:14;;;;;;;39.30;17.70;;;10.00;99.90;;;;;;5024994;28;20129;-32
2021/12/15 10:20:00;;;;;;;19.93;11.63;;;10.00;99.90;;;;;;5022772;28;20385;-31
2021/12/15 10:22:41;;;;;;;24.57;11.17;;;10.00;99.90;;;;;;5019469;28;20304;-31
2021/12/15 10:25:16;;;;;;;17.15;9.65;;;10.10;99.90;;;;;;5025153;28;20041;-31
2021/12/15 10:27:45;;;;;;;18.90;9.60;;;10.10;99.90;;;;;;5007618;28;20056;-31
2021/12/15 10:30:22;;;;;;;17.20;9.93;;;10.10;99.90;;;;;;5025333;28;20072;-31
2021/12/15 10:32:58;;;;;;;18.73;9.30;;;10.10;99.90;;;;;;5024955;28;20128;-31
2021/12/15 10:35:28;;;;;;;16.67;9.13;;;10.10;99.90;;;;;;5023719;28;20516;-31
2021/12/15 10:38:15;;;;;;;20.27;9.63;;;10.10;99.90;;;;;;5004703;28;20049;-31
2021/12/15 10:40:51;;;;;;;19.73;9.87;;;10.10;99.90;;;;;;5019993;28;20707;-31
2021/12/15 10:43:18;;;;;;;20.17;9.97;;;10.10;99.90;;;;;;5020968;28;20524;-30
2021/12/15 10:45:49;;;;;;;22.10;10.23;;;10.10;99.90;;;;;;5021360;28;20409;-31
2021/12/15 10:48:44;;;;;;;19.53;9.67;;;10.20;99.90;;;;;;5003794;28;20398;-31
2021/12/15 10:51:47;;;;;;;18.53;9.77;;;10.20;99.90;;;;;;5022715;28;20069;-31
2021/12/15 10:54:46;;;;;;;21.87;10.30;;;10.20;99.90;;;;;;5012333;28;20178;-31
2021/12/15 10:57:19;;;;;;;16.57;9.40;;;10.20;99.90;;;;;;5005434;28;20491;-31
2021/12/15 10:59:51;;;;;;;18.33;8.87;;;10.20;99.90;;;;;;5023580;28;20053;-31
2021/12/15 11:02:23;;;;;;;15.07;8.07;;;10.30;99.90;;;;;;5020514;28;20137;-31
2021/12/15 11:05:00;;;;;;;16.40;8.23;;;10.30;99.90;;;;;;5015666;28;20061;-31
2021/12/15 11:07:31;;;;;;;15.07;8.13;;;10.30;99.90;;;;;;5004742;28;20093;-31
2021/12/15 11:10:00;;;;;;;15.20;7.30;;;10.40;99.90;;;;;;5022259;28;20331;-32
2021/12/15 11:12:33;;;;;;;18.10;7.70;;;10.30;99.90;;;;;;5017058;28;20167;-31
2021/12/15 11:15:02;;;;;;;17.60;7.37;;;10.40;99.90;;;;;;5017074;28;20049;-31
2021/12/15 11:17:31;;;;;;;18.40;6.80;;;10.40;99.90;;;;;;5002554;28;20049;-31
2021/12/15 11:20:18;;;;;;;17.23;6.80;;;10.40;99.90;;;;;;5014558;28;20045;-31
2021/12/15 11:22:47;;;;;;;13.02;6.50;;;10.40;99.90;;;;;;5014955;28;20501;-31
2021/12/15 11:25:37;;;;;;;13.87;7.00;;;10.50;99.90;;;;;;5019888;28;20053;-31
2021/12/15 11:28:11;;;;;;;14.07;6.60;;;10.50;99.90;;;;;;5003767;28;20046;-31
2021/12/15 11:30:45;;;;;;;17.43;7.00;;;10.50;99.90;;;;;;5021678;28;20495;-31
2021/12/15 11:33:22;;;;;;;12.03;6.87;;;10.40;99.90;;;;;;5019142;28;20050;-31
2021/12/15 11:36:01;;;;;;;17.10;7.60;;;10.40;99.90;;;;;;5022225;28;20051;-30
2021/12/15 11:38:33;;;;;;;15.27;7.47;;;10.40;99.90;;;;;;5007381;28;20396;-31
2021/12/15 11:40:59;;;;;;;18.03;7.47;;;10.40;99.90;;;;;;5023495;28;20166;-31
2021/12/15 11:43:55;;;;;;;15.33;7.73;;;10.50;99.90;;;;;;5022498;28;20519;-31
2021/12/15 11:46:26;;;;;;;18.73;8.17;;;10.40;99.90;;;;;;5013490;28;20430;-31
2021/12/15 11:48:56;;;;;;;18.17;6.97;;;10.40;99.90;;;;;;5020161;28;20669;-31
2021/12/15 11:51:47;;;;;;;14.60;6.87;;;10.40;99.90;;;;;;5023750;28;20084;-31
2021/12/15 11:54:30;;;;;;;15.52;7.00;;;10.40;99.90;;;;;;5020138;28;20037;-32
2021/12/15 11:57:04;;;;;;;16.00;6.70;;;10.40;99.90;;;;;;5007131;28;20104;-31
2021/12/15 11:59:43;;;;;;;12.47;6.37;;;10.40;99.90;;;;;;5015773;28;20053;-31
2021/12/15 12:02:21;;;;;;;15.07;5.70;;;10.50;99.90;;;;;;5025309;28;20289;-31
2021/12/15 12:04:58;;;;;;;10.00;5.20;;;10.50;99.90;;;;;;5022218;28;20041;-31
2021/12/15 12:07:32;;;;;;;15.87;6.13;;;10.50;99.90;;;;;;5008221;28;20302;-31
2021/12/15 12:10:13;;;;;;;15.20;6.17;;;10.50;99.90;;;;;;5023987;28;20523;-30
2021/12/15 12:12:51;;;;;;;14.70;5.78;;;10.50;99.90;;;;;;5017725;28;20056;-31
2021/12/15 12:15:20;;;;;;;13.68;5.63;;;10.50;99.90;;;;;;5023445;28;20053;-31
2021/12/15 12:17:49;;;;;;;13.55;5.90;;;10.50;99.90;;;;;;5006072;28;20107;-31
2021/12/15 12:20:20;;;;;;;13.87;5.20;;;10.50;99.90;;;;;;5023885;28;20049;-31
2021/12/15 12:22:48;;;;;;;11.15;4.90;;;10.50;99.90;;;;;;5027728;28;20132;-32
2021/12/15 12:25:17;;;;;;;14.00;4.90;;;10.50;99.90;;;;;;5027258;28;20041;-31
2021/12/15 12:27:44;;;;;;;11.33;4.10;;;10.50;99.90;;;;;;5006141;28;20042;-31
2021/12/15 12:30:15;;;;;;;12.38;4.25;;;10.50;99.90;;;;;;5023409;28;20536;-31
2021/12/15 12:32:41;;;;;;;9.95;4.28;;;10.50;99.90;;;;;;5027584;28;20049;-31
2021/12/15 12:35:10;;;;;;;13.50;4.05;;;10.50;99.90;;;;;;5024646;28;20108;-31
2021/12/15 12:37:38;;;;;;;9.53;3.43;;;10.50;99.90;;;;;;5008923;28;20655;-31
2021/12/15 12:40:20;;;;;;;10.75;3.53;;;10.60;99.90;;;;;;5028028;28;20077;-31
2021/12/15 12:42:47;;;;;;;8.83;2.83;;;10.50;99.90;;;;;;4996279;28;20116;-31
2021/12/15 12:45:39;;;;;;;6.87;2.70;;;10.50;99.90;;;;;;5016057;28;20057;-31
2021/12/15 12:48:35;;;;;;;8.50;3.13;;;10.60;99.90;;;;;;4986718;28;20045;-31
2021/12/15 12:59:52;;;;;;;6.73;2.23;;;10.40;99.90;;;;;;5020638;28;20238;-30
2021/12/15 13:02:30;;;;;;;5.20;1.67;;;10.40;99.90;;;;;;5018675;28;20057;-31
2021/12/15 13:04:57;;;;;;;7.37;1.53;;;10.20;99.90;;;;;;5021240;28;20064;-31
2021/12/15 13:07:49;;;;;;;7.37;2.03;;;10.30;99.90;;;;;;5009338;28;20107;-31
2021/12/15 13:10:17;;;;;;;3.97;1.80;;;10.30;99.90;;;;;;5018580;28;20050;-31
2021/12/15 13:12:47;;;;;;;6.93;1.80;;;10.30;99.90;;;;;;5021919;28;20046;-31
2021/12/15 13:15:18;;;;;;;6.10;1.83;;;10.30;99.90;;;;;;5024420;28;20396;-31
2021/12/15 13:18:00;;;;;;;6.07;1.75;;;10.30;99.90;;;;;;5003995;28;20103;-31
2021/12/15 13:20:31;;;;;;;8.23;1.90;;;10.30;99.90;;;;;;5022428;28;20049;-31
2021/12/15 13:23:08;;;;;;;8.48;2.15;;;10.20;99.90;;;;;;5020274;28;20045;-31
2021/12/15 13:28:47;;;;;;;10.63;2.00;;;10.20;99.90;;;;;;4986501;28;20057;-31
2021/12/15 13:31:26;;;;;;;10.37;2.07;;;10.20;99.90;;;;;;5019473;28;20045;-31
2021/12/15 13:33:59;;;;;;;5.70;2.13;;;10.20;99.90;;;;;;5022518;28;20046;-31
2021/12/15 13:36:33;;;;;;;10.03;1.97;;;10.10;99.90;;;;;;5009738;28;20049;-31
2021/12/15 13:39:13;;;;;;;6.07;1.70;;;10.10;99.90;;;;;;5021351;28;20149;-31
2021/12/15 13:41:48;;;;;;;6.90;1.80;;;10.10;99.90;;;;;;5020208;28;20069;-31
2021/12/15 13:44:17;;;;;;;6.73;1.70;;;10.10;99.90;;;;;;5016676;28;20037;-31
2021/12/15 13:46:50;;;;;;;5.00;1.80;;;10.00;99.90;;;;;;4999425;28;20134;-31
2021/12/15 13:49:40;;;;;;;6.17;1.60;;;10.00;99.90;;;;;;5013427;28;20048;-31
2021/12/15 13:52:16;;;;;;;6.87;1.77;;;10.00;99.90;;;;;;5017443;28;20057;-31
2021/12/15 13:54:42;;;;;;;6.03;1.60;;;10.00;99.90;;;;;;5015222;28;20053;-30
2021/12/15 13:57:14;;;;;;;6.53;1.60;;;10.00;99.90;;;;;;4997579;28;20056;-31
2021/12/15 13:59:57;;;;;;;3.73;1.23;;;9.90;99.90;;;;;;5023844;28;20112;-32
2021/12/15 14:02:22;;;;;;;3.97;1.30;;;9.90;99.90;;;;;;5021260;28;20072;-31
2021/12/15 14:04:55;;;;;;;4.53;1.23;;;9.90;99.90;;;;;;5022042;28;20049;-31
2021/12/15 14:07:48;;;;;;;5.27;1.67;;;9.80;99.90;;;;;;5005470;28;20048;-31
2021/12/15 14:10:13;;;;;;;9.17;1.80;;;9.80;99.90;;;;;;5021672;28;20144;-31
2021/12/15 14:12:45;;;;;;;6.87;1.63;;;9.70;99.90;;;;;;5022102;28;20144;-31
2021/12/15 14:15:11;;;;;;;4.60;1.40;;;9.70;99.90;;;;;;5015394;28;20581;-31
2021/12/15 14:17:36;;;;;;;6.60;1.70;;;9.60;99.90;;;;;;4998710;28;20125;-31
2021/12/15 14:20:13;;;;;;;5.90;1.40;;;9.60;99.90;;;;;;5016118;28;20053;-31
2021/12/15 14:22:41;;;;;;;4.83;1.73;;;9.60;99.90;;;;;;5014233;28;20033;-31
2021/12/15 14:25:07;;;;;;;7.77;1.50;;;9.50;99.90;;;;;;5020214;28;20085;-31
2021/12/15 14:27:34;;;;;;;4.20;1.50;;;9.50;99.90;;;;;;5004598;28;20054;-31